Time;durP1;ratioP1;P1;durP2;ratioP2;P2;SDS_P1;SDS_P2;PMS_P1;PMS_P2;Temp;Humidity;BMP_temperature;BMP_pressure;BME280_temperature;BME280_humidity;BME280_pressure;Samples;Min_cycle;Max_cycle;Signal;HPM_P1;HPM_P2
2022/09/02 00:00:14;;;;;;;;;;;;;;;25.69;nan;100613.75;5033092;28;1300;-46
2022/09/02 00:03:00;;;;;;;;;;;;;;;25.84;nan;100603.56;5033293;28;1074;-42
2022/09/02 00:05:46;;;;;;;;;;;;;;;25.85;nan;100597.25;5031853;28;1349;-42
2022/09/02 00:08:31;;;;;;;;;;;;;;;25.99;nan;100583.53;5033125;28;1034;-46
2022/09/02 00:11:18;;;;;;;;;;;;;;;25.87;nan;100582.78;5031779;28;641;-41
2022/09/02 00:14:07;;;;;;;;;;;;;;;25.83;nan;100575.19;5033008;28;1984;-41
2022/09/02 00:16:52;;;;;;;;;;;;;;;25.83;nan;100578.72;5032624;28;700;-41
2022/09/02 00:19:38;;;;;;;;;;;;;;;25.84;nan;100574.22;5033128;28;1232;-41
2022/09/02 00:22:23;;;;;;;;;;;;;;;25.73;nan;100568.97;5032805;28;696;-43
2022/09/02 00:25:09;;;;;;;;;;;;;;;25.58;nan;100565.00;5032716;28;1331;-41
2022/09/02 00:27:54;;;;;;;;;;;;;;;25.72;nan;100561.94;5032961;28;992;-42
2022/09/02 00:30:40;;;;;;;;;;;;;;;25.75;nan;100561.69;5032423;28;1290;-43
2022/09/02 00:33:25;;;;;;;;;;;;;;;25.75;nan;100559.00;5032829;28;952;-41
2022/09/02 00:36:10;;;;;;;;;;;;;;;25.85;nan;100563.41;5032645;28;1974;-43
2022/09/02 00:38:55;;;;;;;;;;;;;;;25.81;nan;100566.47;5032779;28;1305;-41
2022/09/02 00:41:41;;;;;;;;;;;;;;;25.76;nan;100561.56;5032430;28;618;-43
2022/09/02 00:44:27;;;;;;;;;;;;;;;25.79;nan;100561.28;5032687;28;1319;-46
2022/09/02 00:47:14;;;;;;;;;;;;;;;25.93;nan;100550.19;5032578;28;1735;-39
2022/09/02 00:49:59;;;;;;;;;;;;;;;25.98;nan;100552.47;5032870;28;1329;-41
2022/09/02 00:52:47;;;;;;;;;;;;;;;25.85;nan;100557.22;5031313;28;1137;-41
2022/09/02 00:55:39;;;;;;;;;;;;;;;25.82;nan;100553.00;5031170;28;1910;-43
2022/09/02 00:58:27;;;;;;;;;;;;;;;25.89;nan;100550.63;5032516;28;1168;-42
2022/09/02 01:01:13;;;;;;;;;;;;;;;25.94;nan;100543.91;5032326;28;728;-40
2022/09/02 01:03:59;;;;;;;;;;;;;;;25.92;nan;100535.19;5032697;28;1333;-43
2022/09/02 01:06:44;;;;;;;;;;;;;;;25.90;nan;100542.47;5032458;28;637;-42
2022/09/02 01:09:32;;;;;;;;;;;;;;;25.84;nan;100531.53;5032594;28;1197;-44
2022/09/02 01:12:18;;;;;;;;;;;;;;;25.78;nan;100530.25;5032567;28;688;-48
2022/09/02 01:15:05;;;;;;;;;;;;;;;25.84;nan;100534.22;5032769;28;1915;-42
2022/09/02 01:17:50;;;;;;;;;;;;;;;25.83;nan;100527.16;5032080;28;1051;-40
2022/09/02 01:20:35;;;;;;;;;;;;;;;25.77;nan;100533.06;5032057;28;1265;-41
2022/09/02 01:23:21;;;;;;;;;;;;;;;25.84;nan;100532.34;5032294;28;954;-43
2022/09/02 01:26:07;;;;;;;;;;;;;;;25.86;nan;100533.09;5032047;28;697;-45
2022/09/02 01:28:52;;;;;;;;;;;;;;;25.77;nan;100533.06;5032327;28;1260;-41
2022/09/02 01:31:38;;;;;;;;;;;;;;;25.67;nan;100535.69;5031972;28;633;-45
2022/09/02 01:34:23;;;;;;;;;;;;;;;25.64;nan;100530.63;5030857;28;1903;-39
2022/09/02 01:37:09;;;;;;;;;;;;;;;25.64;nan;100538.63;5034519;28;638;-45
2022/09/02 01:39:56;;;;;;;;;;;;;;;25.46;nan;100534.91;5036056;28;1224;-41
2022/09/02 01:42:42;;;;;;;;;;;;;;;25.54;nan;100533.28;5035816;28;551;-40
2022/09/02 01:45:28;;;;;;;;;;;;;;;25.58;nan;100538.34;5035361;28;1801;-42
2022/09/02 01:48:13;;;;;;;;;;;;;;;25.67;nan;100532.19;5035514;28;1027;-43
2022/09/02 01:51:06;;;;;;;;;;;;;;;25.58;nan;100533.00;5035410;28;681;-45
2022/09/02 01:53:51;;;;;;;;;;;;;;;25.72;nan;100532.59;5035877;28;1217;-44
2022/09/02 01:56:36;;;;;;;;;;;;;;;25.65;nan;100534.16;5035338;28;1969;-45
2022/09/02 01:59:22;;;;;;;;;;;;;;;25.53;nan;100531.56;5034206;28;1232;-41
2022/09/02 02:02:07;;;;;;;;;;;;;;;25.55;nan;100528.78;5034488;28;605;-47
2022/09/02 02:04:53;;;;;;;;;;;;;;;25.52;nan;100529.06;5035397;28;1306;-40
2022/09/02 02:07:39;;;;;;;;;;;;;;;25.57;nan;100529.50;5035247;28;621;-45
2022/09/02 02:10:25;;;;;;;;;;;;;;;25.62;nan;100523.75;5035160;28;1243;-41
2022/09/02 02:13:11;;;;;;;;;;;;;;;25.72;nan;100521.94;5035170;28;1132;-41
2022/09/02 02:15:56;;;;;;;;;;;;;;;25.74;nan;100531.50;5034870;28;1972;-40
2022/09/02 02:18:42;;;;;;;;;;;;;;;25.72;nan;100529.94;5034887;28;1343;-40
2022/09/02 02:21:27;;;;;;;;;;;;;;;25.64;nan;100517.31;5035285;28;664;-44
2022/09/02 02:24:13;;;;;;;;;;;;;;;25.67;nan;100525.03;5035004;28;1245;-40
2022/09/02 02:26:58;;;;;;;;;;;;;;;25.60;nan;100536.38;5034801;28;719;-39
2022/09/02 02:29:43;;;;;;;;;;;;;;;25.57;nan;100531.31;5034916;28;1299;-39
2022/09/02 02:32:31;;;;;;;;;;;;;;;25.50;nan;100536.38;5034866;28;708;-43
2022/09/02 02:35:17;;;;;;;;;;;;;;;25.51;nan;100530.88;5034967;28;1902;-45
2022/09/02 02:38:03;;;;;;;;;;;;;;;25.40;nan;100538.13;5034495;28;904;-41
2022/09/02 02:40:49;;;;;;;;;;;;;;;25.45;nan;100531.41;5034426;28;1269;-42
2022/09/02 02:43:35;;;;;;;;;;;;;;;25.67;nan;100526.84;5034808;28;1086;-41
2022/09/02 02:46:20;;;;;;;;;;;;;;;25.76;nan;100526.88;5021588;28;1519;-41
2022/09/02 02:49:06;;;;;;;;;;;;;;;25.67;nan;100527.69;5014155;28;1241;-43
2022/09/02 02:51:52;;;;;;;;;;;;;;;25.81;nan;100527.28;5014621;28;659;-42
2022/09/02 02:54:39;;;;;;;;;;;;;;;25.85;nan;100533.19;5013984;28;1915;-44
2022/09/02 02:57:24;;;;;;;;;;;;;;;25.90;nan;100534.47;5014614;28;657;-42
2022/09/02 03:00:10;;;;;;;;;;;;;;;25.98;nan;100523.13;5014267;28;1347;-41
2022/09/02 03:02:56;;;;;;;;;;;;;;;25.87;nan;100520.59;5014309;28;1493;-41
2022/09/02 03:05:41;;;;;;;;;;;;;;;25.78;nan;100510.72;5014188;28;1445;-43
2022/09/02 03:08:27;;;;;;;;;;;;;;;25.65;nan;100507.47;5014500;28;947;-44
2022/09/02 03:11:13;;;;;;;;;;;;;;;25.70;nan;100506.09;5013934;28;622;-46
2022/09/02 03:13:59;;;;;;;;;;;;;;;25.68;nan;100502.72;5014221;28;1346;-40
2022/09/02 03:16:44;;;;;;;;;;;;;;;25.82;nan;100506.78;5013933;28;1959;-43
2022/09/02 03:19:29;;;;;;;;;;;;;;;25.72;nan;100513.94;5014002;28;1237;-41
2022/09/02 03:22:15;;;;;;;;;;;;;;;25.58;nan;100517.84;5014236;28;677;-48
2022/09/02 03:25:00;;;;;;;;;;;;;;;25.61;nan;100514.91;5014401;28;1239;-42
2022/09/02 03:27:46;;;;;;;;;;;;;;;25.64;nan;100511.13;5013973;28;1146;-40
2022/09/02 03:30:32;;;;;;;;;;;;;;;25.70;nan;100515.91;5014321;28;1280;-41
2022/09/02 03:33:17;;;;;;;;;;;;;;;25.84;nan;100513.69;5013802;28;1047;-44
2022/09/02 03:36:03;;;;;;;;;;;;;;;26.03;nan;100511.03;5012744;28;1970;-42
2022/09/02 03:38:48;;;;;;;;;;;;;;;26.09;nan;100512.28;5014074;28;1327;-46
2022/09/02 03:41:34;;;;;;;;;;;;;;;26.08;nan;100515.97;5013656;28;661;-49
2022/09/02 03:44:19;;;;;;;;;;;;;;;25.99;nan;100512.28;5012681;28;1319;-42
2022/09/02 03:47:04;;;;;;;;;;;;;;;25.84;nan;100511.00;5013771;28;1693;-43
2022/09/02 03:49:50;;;;;;;;;;;;;;;25.82;nan;100515.66;5014039;28;1240;-43
2022/09/02 03:52:35;;;;;;;;;;;;;;;25.62;nan;100513.09;5013537;28;696;-40
2022/09/02 03:55:22;;;;;;;;;;;;;;;25.54;nan;100503.94;5013430;28;1974;-45
2022/09/02 03:58:07;;;;;;;;;;;;;;;25.49;nan;100510.66;5013714;28;939;-44
2022/09/02 04:00:53;;;;;;;;;;;;;;;25.46;nan;100503.75;5013279;28;1257;-44
2022/09/02 04:03:38;;;;;;;;;;;;;;;25.52;nan;100503.25;5012585;28;1343;-40
2022/09/02 04:06:24;;;;;;;;;;;;;;;25.58;nan;100509.00;5012776;28;618;-44
2022/09/02 04:09:10;;;;;;;;;;;;;;;25.45;nan;100501.22;5013541;28;1244;-44
2022/09/02 04:11:55;;;;;;;;;;;;;;;25.39;nan;100505.28;5013271;28;637;-41
2022/09/02 04:14:41;;;;;;;;;;;;;;;25.39;nan;100496.41;5013082;28;1560;-42
2022/09/02 04:17:26;;;;;;;;;;;;;;;25.47;nan;100493.94;5013386;28;649;-40
2022/09/02 04:20:12;;;;;;;;;;;;;;;25.54;nan;100482.59;5012939;28;1344;-44
2022/09/02 04:22:58;;;;;;;;;;;;;;;25.56;nan;100493.16;5013365;28;1078;-39
2022/09/02 04:25:43;;;;;;;;;;;;;;;25.44;nan;100488.88;5013173;28;1252;-41
2022/09/02 04:28:29;;;;;;;;;;;;;;;25.54;nan;100487.09;5013005;28;1057;-44
2022/09/02 04:31:15;;;;;;;;;;;;;;;25.65;nan;100489.66;5013025;28;622;-41
2022/09/02 04:34:01;;;;;;;;;;;;;;;25.51;nan;100482.03;5013519;28;1276;-42
2022/09/02 04:36:47;;;;;;;;;;;;;;;25.46;nan;100477.09;5013105;28;1952;-44
2022/09/02 04:39:32;;;;;;;;;;;;;;;25.43;nan;100482.69;5013427;28;1220;-40
2022/09/02 04:42:17;;;;;;;;;;;;;;;25.44;nan;100481.69;5013181;28;649;-41
2022/09/02 04:45:03;;;;;;;;;;;;;;;25.52;nan;100481.91;5013056;28;1633;-45
2022/09/02 04:47:48;;;;;;;;;;;;;;;25.51;nan;100480.22;5013151;28;1155;-39
2022/09/02 04:50:35;;;;;;;;;;;;;;;25.35;nan;100479.84;5012753;28;1381;-43
2022/09/02 04:53:20;;;;;;;;;;;;;;;25.29;nan;100483.06;5013330;28;1075;-40
2022/09/02 04:56:08;;;;;;;;;;;;;;;25.28;nan;100484.06;5012753;28;1910;-41
2022/09/02 04:58:54;;;;;;;;;;;;;;;25.17;nan;100478.81;5012038;28;1320;-42
2022/09/02 05:01:40;;;;;;;;;;;;;;;25.20;nan;100473.22;5012701;28;606;-45
2022/09/02 05:04:26;;;;;;;;;;;;;;;25.21;nan;100474.91;5013070;28;1342;-40
2022/09/02 05:07:11;;;;;;;;;;;;;;;25.10;nan;100468.84;5012587;28;653;-40
2022/09/02 05:09:57;;;;;;;;;;;;;;;25.12;nan;100467.72;5012981;28;1197;-40
2022/09/02 05:12:42;;;;;;;;;;;;;;;25.17;nan;100473.47;5015811;28;940;-43
2022/09/02 05:15:28;;;;;;;;;;;;;;;25.16;nan;100463.81;5016130;28;1902;-41
2022/09/02 05:18:13;;;;;;;;;;;;;;;25.19;nan;100462.69;5016292;28;1046;-40
2022/09/02 05:20:58;;;;;;;;;;;;;;;25.27;nan;100466.38;5016058;28;1336;-40
2022/09/02 05:23:43;;;;;;;;;;;;;;;25.32;nan;100464.13;5016473;28;1309;-42
2022/09/02 05:26:29;;;;;;;;;;;;;;;25.24;nan;100461.31;5015869;28;633;-40
2022/09/02 05:29:14;;;;;;;;;;;;;;;25.23;nan;100466.78;5016160;28;1249;-43
2022/09/02 05:32:00;;;;;;;;;;;;;;;25.25;nan;100463.00;5016164;28;653;-40
2022/09/02 05:34:46;;;;;;;;;;;;;;;25.21;nan;100461.56;5016344;28;1258;-44
2022/09/02 05:37:33;;;;;;;;;;;;;;;25.11;nan;100463.34;5016151;28;1910;-41
2022/09/02 05:40:18;;;;;;;;;;;;;;;25.07;nan;100463.78;5015687;28;1328;-42
2022/09/02 05:43:06;;;;;;;;;;;;;;;25.14;nan;100456.94;5015761;28;1062;-44
2022/09/02 05:45:51;;;;;;;;;;;;;;;25.20;nan;100464.41;5015701;28;1393;-39
2022/09/02 05:51:47;;;;;;;;;;;;;;;24.95;nan;100468.38;5015479;28;708;-41
2022/09/02 05:54:34;;;;;;;;;;;;;;;24.95;nan;100471.03;5015775;28;1213;-41
2022/09/02 05:57:20;;;;;;;;;;;;;;;25.06;nan;100464.75;5015798;28;1906;-41
2022/09/02 06:00:06;;;;;;;;;;;;;;;25.10;nan;100469.69;5015827;28;1260;-47
2022/09/02 06:02:51;;;;;;;;;;;;;;;24.98;nan;100481.41;5015398;28;1035;-39
2022/09/02 06:05:37;;;;;;;;;;;;;;;25.06;nan;100480.75;5015435;28;1261;-41
2022/09/02 06:08:22;;;;;;;;;;;;;;;24.90;nan;100486.56;5015478;28;1064;-43
2022/09/02 06:11:08;;;;;;;;;;;;;;;24.99;nan;100491.94;5015212;28;689;-42
2022/09/02 06:13:54;;;;;;;;;;;;;;;25.16;nan;100493.13;5015123;28;1214;-41
2022/09/02 06:16:40;;;;;;;;;;;;;;;25.43;nan;100482.69;5014439;28;1965;-42
2022/09/02 06:19:27;;;;;;;;;;;;;;;25.60;nan;100491.88;5015567;28;1256;-43
2022/09/02 06:22:13;;;;;;;;;;;;;;;25.74;nan;100480.81;5014714;28;700;-40
2022/09/02 06:24:58;;;;;;;;;;;;;;;25.67;nan;100486.84;5015506;28;1263;-40
2022/09/02 06:27:43;;;;;;;;;;;;;;;25.79;nan;100491.06;5014850;28;1055;-41
2022/09/02 06:30:29;;;;;;;;;;;;;;;25.86;nan;100493.06;5015259;28;1314;-38
2022/09/02 06:33:14;;;;;;;;;;;;;;;25.85;nan;100491.34;5014670;28;1046;-40
2022/09/02 06:35:59;;;;;;;;;;;;;;;25.71;nan;100485.59;5024424;28;1902;-39
2022/09/02 06:38:45;;;;;;;;;;;;;;;25.73;nan;100492.47;5029895;28;1368;-40
2022/09/02 06:41:32;;;;;;;;;;;;;;;25.74;nan;100490.66;5029675;28;1186;-43
2022/09/02 06:44:20;;;;;;;;;;;;;;;25.77;nan;100490.38;5031075;28;1359;-46
2022/09/02 06:47:05;;;;;;;;;;;;;;;25.86;nan;100489.53;5033418;28;1733;-40
2022/09/02 06:49:51;;;;;;;;;;;;;;;25.95;nan;100486.03;5033650;28;1280;-39
2022/09/02 06:52:37;;;;;;;;;;;;;;;25.95;nan;100483.38;5028994;28;1104;-38
2022/09/02 06:55:22;;;;;;;;;;;;;;;26.05;nan;100473.53;5032043;28;1269;-37
2022/09/02 06:58:08;;;;;;;;;;;;;;;26.16;nan;100486.78;5026648;28;1095;-40
2022/09/02 07:00:54;;;;;;;;;;;;;;;26.21;nan;100481.00;5028742;28;1371;-43
2022/09/02 07:06:46;;;;;;;;;;;;;;;26.27;nan;100478.59;5032409;28;862;-38
2022/09/02 07:09:32;;;;;;;;;;;;;;;26.29;nan;100481.16;5033453;28;1271;-39
2022/09/02 07:12:18;;;;;;;;;;;;;;;26.33;nan;100478.03;5028326;28;1209;-40
2022/09/02 07:15:04;;;;;;;;;;;;;;;26.36;nan;100474.22;5032784;28;1366;-40
2022/09/02 07:17:50;;;;;;;;;;;;;;;26.38;nan;100470.44;5026987;28;1906;-44
2022/09/02 07:20:35;;;;;;;;;;;;;;;26.41;nan;100474.66;5030611;28;1305;-45
2022/09/02 07:23:21;;;;;;;;;;;;;;;26.34;nan;100466.38;5033062;28;956;-47
2022/09/02 07:26:13;;;;;;;;;;;;;;;26.42;nan;100465.63;5031972;28;929;-45
2022/09/02 07:28:58;;;;;;;;;;;;;;;26.45;nan;100468.88;5032754;28;1272;-42
2022/09/02 07:31:45;;;;;;;;;;;;;;;26.49;nan;100462.28;5026273;28;842;-37
2022/09/02 07:34:30;;;;;;;;;;;;;;;26.52;nan;100472.66;5032128;28;1300;-42
2022/09/02 07:37:16;;;;;;;;;;;;;;;26.53;nan;100466.34;5031821;28;1966;-43
2022/09/02 07:40:02;;;;;;;;;;;;;;;26.51;nan;100470.13;5032561;28;1279;-44
2022/09/02 07:42:49;;;;;;;;;;;;;;;26.53;nan;100462.81;5030908;28;1136;-37
2022/09/02 07:45:34;;;;;;;;;;;;;;;26.50;nan;100466.63;5021200;28;1419;-39
2022/09/02 07:48:20;;;;;;;;;;;;;;;26.54;nan;100469.84;5032145;28;1040;-38
2022/09/02 07:51:07;;;;;;;;;;;;;;;26.58;nan;100474.75;5028059;28;870;-39
2022/09/02 07:53:52;;;;;;;;;;;;;;;26.61;nan;100482.47;5032333;28;1252;-40
2022/09/02 07:56:37;;;;;;;;;;;;;;;26.66;nan;100483.88;5028352;28;1910;-37
2022/09/02 07:59:23;;;;;;;;;;;;;;;26.70;nan;100485.25;5032030;28;1319;-40
2022/09/02 08:02:08;;;;;;;;;;;;;;;26.71;nan;100492.31;5026361;28;1324;-40
2022/09/02 08:04:54;;;;;;;;;;;;;;;26.79;nan;100500.44;5018750;28;1338;-44
2022/09/02 08:07:39;;;;;;;;;;;;;;;26.83;nan;100502.72;5022911;28;1271;-44
2022/09/02 08:10:27;;;;;;;;;;;;;;;26.80;nan;100499.47;5020528;28;1292;-42
2022/09/02 08:13:13;;;;;;;;;;;;;;;26.86;nan;100506.91;5021261;28;1237;-40
2022/09/02 08:15:59;;;;;;;;;;;;;;;26.98;nan;100506.59;5025428;28;1979;-39
2022/09/02 08:18:45;;;;;;;;;;;;;;;27.16;nan;100520.03;5023817;28;1351;-45
2022/09/02 08:21:30;;;;;;;;;;;;;;;27.24;nan;100520.13;5019155;28;1249;-42
2022/09/02 08:24:16;;;;;;;;;;;;;;;27.30;nan;100521.41;5023528;28;1269;-39
2022/09/02 08:27:01;;;;;;;;;;;;;;;27.49;nan;100510.59;5023569;28;1348;-59
2022/09/02 08:29:46;;;;;;;;;;;;;;;27.60;nan;100510.44;5029992;28;1289;-50
2022/09/02 08:32:31;;;;;;;;;;;;;;;27.55;nan;100516.22;5028355;28;622;-38
2022/09/02 08:35:17;;;;;;;;;;;;;;;27.63;nan;100512.81;5026960;28;1300;-45
2022/09/02 08:38:03;;;;;;;;;;;;;;;27.34;nan;100526.28;5024594;28;1930;-39
2022/09/02 08:40:49;;;;;;;;;;;;;;;27.31;nan;100529.25;5025200;28;1311;-37
2022/09/02 08:43:41;;;;;;;;;;;;;;;27.38;nan;100521.50;5028840;28;1293;-37
2022/09/02 08:46:27;;;;;;;;;;;;;;;27.31;nan;100517.72;5022873;28;1505;-47
2022/09/02 08:49:21;;;;;;;;;;;;;;;27.28;nan;100523.34;5028623;28;1281;-44
2022/09/02 08:52:07;;;;;;;;;;;;;;;27.38;nan;100518.81;5021251;28;1106;-48
2022/09/02 08:54:57;;;;;;;;;;;;;;;27.34;nan;100523.63;5029908;28;1300;-47
2022/09/02 08:57:43;;;;;;;;;;;;;;;27.34;nan;100518.25;5014997;28;1910;-45
2022/09/02 09:00:34;;;;;;;;;;;;;;;27.33;nan;100511.22;5031099;28;1336;-54
2022/09/02 09:03:22;;;;;;;;;;;;;;;27.35;nan;100508.41;5034579;28;1013;-55
2022/09/02 09:06:43;;;;;;;;;;;;;;;27.32;nan;100520.25;5033936;28;922;-49
2022/09/02 09:09:35;;;;;;;;;;;;;;;27.33;nan;100521.09;4992354;28;1292;-48
2022/09/02 09:12:35;;;;;;;;;;;;;;;27.32;nan;100519.41;5026511;28;1065;-48
2022/09/02 09:15:32;;;;;;;;;;;;;;;27.33;nan;100527.25;5029994;28;1383;-49
2022/09/02 09:18:47;;;;;;;;;;;;;;;27.33;nan;100521.91;5027165;28;1906;-50
2022/09/02 09:21:33;;;;;;;;;;;;;;;27.40;nan;100527.53;5025296;28;1423;-46
2022/09/02 09:24:30;;;;;;;;;;;;;;;27.42;nan;100528.22;5025384;28;1354;-51
2022/09/02 09:27:20;;;;;;;;;;;;;;;27.39;nan;100526.66;5027602;28;972;-51
2022/09/02 09:30:08;;;;;;;;;;;;;;;27.37;nan;100528.66;5033137;28;1260;-51
2022/09/02 09:33:00;;;;;;;;;;;;;;;27.40;nan;100520.34;5029163;28;1435;-53
2022/09/02 09:35:47;;;;;;;;;;;;;;;27.41;nan;100523.88;5031775;28;1347;-56
2022/09/02 09:38:34;;;;;;;;;;;;;;;27.44;nan;100518.25;5032417;28;1910;-51
2022/09/02 09:41:23;;;;;;;;;;;;;;;27.44;nan;100524.44;5030143;28;869;-57
2022/09/02 09:44:08;;;;;;;;;;;;;;;27.44;nan;100527.13;5030093;28;1244;-48
2022/09/02 09:47:01;;;;;;;;;;;;;;;27.43;nan;100524.56;5012408;28;1393;-50
2022/09/02 09:49:48;;;;;;;;;;;;;;;27.41;nan;100529.22;5031462;28;1224;-54
2022/09/02 09:52:34;;;;;;;;;;;;;;;27.40;nan;100533.72;5032449;28;577;-51
2022/09/02 09:55:20;;;;;;;;;;;;;;;27.41;nan;100534.56;5029471;28;1311;-55
2022/09/02 09:58:09;;;;;;;;;;;;;;;27.42;nan;100526.41;5033478;28;1902;-53
2022/09/02 10:00:58;;;;;;;;;;;;;;;27.41;nan;100519.38;5032682;28;1253;-53
2022/09/02 10:03:51;;;;;;;;;;;;;;;27.42;nan;100521.06;5033094;28;1268;-54
2022/09/02 10:06:41;;;;;;;;;;;;;;;27.44;nan;100529.78;5021162;28;849;-55
2022/09/02 10:09:32;;;;;;;;;;;;;;;27.40;nan;100517.66;5034151;28;1221;-51
2022/09/02 10:12:30;;;;;;;;;;;;;;;27.44;nan;100516.44;5028263;28;952;-55
2022/09/02 10:15:18;;;;;;;;;;;;;;;27.44;nan;100521.78;5031760;28;1237;-53
2022/09/02 10:18:21;;;;;;;;;;;;;;;27.47;nan;100528.66;5027562;28;1965;-54
2022/09/02 10:21:21;;;;;;;;;;;;;;;27.46;nan;100511.75;5028938;28;850;-50
2022/09/02 10:24:06;;;;;;;;;;;;;;;27.47;nan;100513.44;5030152;28;1213;-53
2022/09/02 10:26:55;;;;;;;;;;;;;;;27.47;nan;100513.44;5029789;28;877;-55
2022/09/02 10:29:40;;;;;;;;;;;;;;;27.49;nan;100505.25;5033880;28;1252;-56
2022/09/02 10:32:45;;;;;;;;;;;;;;;27.49;nan;100499.91;5030303;28;862;-54
2022/09/02 10:35:31;;;;;;;;;;;;;;;27.50;nan;100512.31;5025792;28;1348;-54
2022/09/02 10:38:36;;;;;;;;;;;;;;;27.51;nan;100506.78;5031727;28;1910;-54
2022/09/02 10:41:36;;;;;;;;;;;;;;;27.52;nan;100500.47;5026577;28;873;-55
2022/09/02 10:44:40;;;;;;;;;;;;;;;27.54;nan;100503.81;5029193;28;1367;-54
2022/09/02 10:47:26;;;;;;;;;;;;;;;27.58;nan;100499.00;5031961;28;732;-51
2022/09/02 10:50:23;;;;;;;;;;;;;;;27.57;nan;100492.81;5026404;28;1273;-53
2022/09/02 10:53:08;;;;;;;;;;;;;;;27.57;nan;100490.13;5033051;28;1031;-55
2022/09/02 10:56:15;;;;;;;;;;;;;;;27.60;nan;100486.34;5032457;28;1261;-54
2022/09/02 10:59:02;;;;;;;;;;;;;;;27.59;nan;100490.84;5031997;28;1228;-51
2022/09/02 11:01:50;;;;;;;;;;;;;;;27.60;nan;100497.03;5026419;28;850;-56
2022/09/02 11:04:36;;;;;;;;;;;;;;;27.62;nan;100495.91;5032612;28;1241;-54
2022/09/02 11:07:42;;;;;;;;;;;;;;;27.64;nan;100483.19;5026461;28;921;-56
2022/09/02 11:10:36;;;;;;;;;;;;;;;27.63;nan;100470.81;5027494;28;1241;-56
2022/09/02 11:13:44;;;;;;;;;;;;;;;27.67;nan;100476.69;5028165;28;1062;-55
2022/09/02 11:16:35;;;;;;;;;;;;;;;27.71;nan;100470.06;5027685;28;885;-53
2022/09/02 11:19:37;;;;;;;;;;;;;;;27.70;nan;100465.69;5033052;28;1303;-52
2022/09/02 11:22:26;;;;;;;;;;;;;;;27.70;nan;100465.69;5027147;28;968;-55
2022/09/02 11:25:15;;;;;;;;;;;;;;;27.69;nan;100474.72;5029606;28;1312;-53
2022/09/02 11:28:09;;;;;;;;;;;;;;;27.71;nan;100472.75;5027529;28;1070;-55
2022/09/02 11:30:54;;;;;;;;;;;;;;;27.71;nan;100466.53;5030619;28;1347;-52
2022/09/02 11:33:52;;;;;;;;;;;;;;;27.71;nan;100464.72;5032346;28;1331;-48
2022/09/02 11:36:38;;;;;;;;;;;;;;;27.71;nan;100462.03;5030286;28;881;-53
2022/09/02 11:39:33;;;;;;;;;;;;;;;27.73;nan;100472.56;5032037;28;1270;-54
2022/09/02 11:42:49;;;;;;;;;;;;;;;27.74;nan;100475.09;5024093;28;1073;-55
2022/09/02 11:45:40;;;;;;;;;;;;;;;27.73;nan;100469.91;5027930;28;1582;-56
2022/09/02 11:48:35;;;;;;;;;;;;;;;27.72;nan;100468.22;5031029;28;1579;-54
2022/09/02 11:51:39;;;;;;;;;;;;;;;27.76;nan;100466.91;5023923;28;845;-56
2022/09/02 11:54:27;;;;;;;;;;;;;;;27.75;nan;100457.22;5030623;28;1319;-53
2022/09/02 11:57:14;;;;;;;;;;;;;;;27.71;nan;100445.97;5026146;28;1966;-52
2022/09/02 12:00:02;;;;;;;;;;;;;;;27.73;nan;100448.47;5030213;28;1416;-55
2022/09/02 12:02:50;;;;;;;;;;;;;;;27.78;nan;100448.88;5031863;28;1019;-49
2022/09/02 12:05:36;;;;;;;;;;;;;;;27.78;nan;100440.84;5020596;28;1245;-48
2022/09/02 12:08:27;;;;;;;;;;;;;;;27.82;nan;100440.38;5031800;28;999;-49
2022/09/02 12:11:32;;;;;;;;;;;;;;;27.83;nan;100435.88;5020667;28;892;-39
2022/09/02 12:14:24;;;;;;;;;;;;;;;27.52;nan;100433.56;5029831;28;1316;-40
2022/09/02 12:17:29;;;;;;;;;;;;;;;26.90;nan;100441.50;5026508;28;1976;-44
2022/09/02 12:20:34;;;;;;;;;;;;;;;26.56;nan;100439.34;5028894;28;1205;-40
2022/09/02 12:23:38;;;;;;;;;;;;;;;26.58;nan;100434.69;5029691;28;1049;-45
2022/09/02 12:26:49;;;;;;;;;;;;;;;26.50;nan;100433.75;5025782;28;920;-43
2022/09/02 12:29:36;;;;;;;;;;;;;;;26.37;nan;100438.53;5031813;28;1264;-43
2022/09/02 12:32:43;;;;;;;;;;;;;;;26.31;nan;100433.78;5029810;28;1001;-38
2022/09/02 12:35:29;;;;;;;;;;;;;;;26.29;nan;100433.94;5026386;28;1368;-40
2022/09/02 12:38:20;;;;;;;;;;;;;;;26.20;nan;100423.25;5031395;28;1902;-39
2022/09/02 12:41:08;;;;;;;;;;;;;;;26.20;nan;100421.44;5026220;28;829;-43
2022/09/02 12:44:11;;;;;;;;;;;;;;;26.04;nan;100416.66;5031338;28;1237;-41
2022/09/02 12:46:59;;;;;;;;;;;;;;;26.07;nan;100415.50;5021952;28;1349;-41
2022/09/02 12:50:08;;;;;;;;;;;;;;;26.02;nan;100420.44;5031775;28;1288;-41
2022/09/02 12:53:06;;;;;;;;;;;;;;;25.98;nan;100421.69;5030332;28;1120;-42
2022/09/02 12:56:14;;;;;;;;;;;;;;;25.97;nan;100417.34;5022068;28;1241;-39
2022/09/02 12:58:59;;;;;;;;;;;;;;;25.95;nan;100413.97;5031338;28;1982;-40
2022/09/02 13:01:53;;;;;;;;;;;;;;;25.99;nan;100410.06;5026396;28;869;-42
2022/09/02 13:04:48;;;;;;;;;;;;;;;26.01;nan;100402.75;5030973;28;1475;-42
2022/09/02 13:07:52;;;;;;;;;;;;;;;26.10;nan;100404.56;5028808;28;614;-40
2022/09/02 13:10:50;;;;;;;;;;;;;;;26.08;nan;100409.19;5023636;28;1320;-41
2022/09/02 13:13:36;;;;;;;;;;;;;;;26.08;nan;100401.19;5030853;28;1006;-45
2022/09/02 13:16:41;;;;;;;;;;;;;;;25.99;nan;100397.53;5028257;28;866;-38
2022/09/02 13:19:45;;;;;;;;;;;;;;;25.95;nan;100395.31;5021024;28;1894;-40
2022/09/02 13:22:39;;;;;;;;;;;;;;;25.94;nan;100390.94;5029630;28;689;-39
2022/09/02 13:25:40;;;;;;;;;;;;;;;25.97;nan;100385.31;5024490;28;1495;-39
2022/09/02 13:28:32;;;;;;;;;;;;;;;25.92;nan;100372.41;5030570;28;1033;-38
2022/09/02 13:31:20;;;;;;;;;;;;;;;25.86;nan;100372.97;5029050;28;878;-43
2022/09/02 13:34:09;;;;;;;;;;;;;;;25.85;nan;100365.97;5033672;28;1335;-42
2022/09/02 13:36:54;;;;;;;;;;;;;;;25.88;nan;100365.66;5033573;28;920;-41
2022/09/02 13:39:39;;;;;;;;;;;;;;;25.82;nan;100362.72;5034027;28;1366;-43
2022/09/02 13:42:26;;;;;;;;;;;;;;;25.83;nan;100353.75;5027194;28;953;-43
2022/09/02 13:45:13;;;;;;;;;;;;;;;25.81;nan;100345.88;5028255;28;1342;-39
2022/09/02 13:48:01;;;;;;;;;;;;;;;25.84;nan;100352.78;5032471;28;971;-45
2022/09/02 13:50:47;;;;;;;;;;;;;;;25.79;nan;100350.50;5028494;28;1308;-42
2022/09/02 13:53:34;;;;;;;;;;;;;;;25.79;nan;100347.84;5033629;28;1105;-40
2022/09/02 13:56:34;;;;;;;;;;;;;;;25.81;nan;100337.00;5028732;28;853;-43
2022/09/02 13:59:35;;;;;;;;;;;;;;;25.82;nan;100334.22;5029867;28;1926;-49
2022/09/02 14:02:20;;;;;;;;;;;;;;;25.79;nan;100325.66;5030325;28;912;-42
2022/09/02 14:05:12;;;;;;;;;;;;;;;25.77;nan;100324.97;5032333;28;1252;-41
2022/09/02 14:08:00;;;;;;;;;;;;;;;25.71;nan;100315.72;5027871;28;1006;-42
2022/09/02 14:10:47;;;;;;;;;;;;;;;25.69;nan;100315.00;5029984;28;1250;-42
2022/09/02 14:13:33;;;;;;;;;;;;;;;25.68;nan;100315.16;5032846;28;1619;-41
2022/09/02 14:16:32;;;;;;;;;;;;;;;25.63;nan;100301.38;5023169;28;889;-39
2022/09/02 14:19:20;;;;;;;;;;;;;;;25.61;nan;100295.34;5032979;28;1907;-43
2022/09/02 14:22:17;;;;;;;;;;;;;;;25.64;nan;100301.25;5028180;28;1296;-40
2022/09/02 14:25:13;;;;;;;;;;;;;;;25.59;nan;100297.34;5032281;28;1292;-39
2022/09/02 14:28:03;;;;;;;;;;;;;;;25.61;nan;100290.03;5029317;28;1142;-41
2022/09/02 14:30:56;;;;;;;;;;;;;;;25.58;nan;100293.81;5031997;28;1388;-38
2022/09/02 14:33:43;;;;;;;;;;;;;;;25.62;nan;100305.06;5032352;28;1390;-38
2022/09/02 14:36:36;;;;;;;;;;;;;;;25.57;nan;100293.94;5026117;28;846;-39
2022/09/02 14:39:21;;;;;;;;;;;;;;;25.61;nan;100295.34;5028784;28;1962;-38
2022/09/02 14:42:06;;;;;;;;;;;;;;;25.58;nan;100298.31;5027850;28;861;-37
2022/09/02 14:44:52;;;;;;;;;;;;;;;25.57;nan;100301.94;5032249;28;1268;-37
2022/09/02 14:47:38;;;;;;;;;;;;;;;25.53;nan;100302.22;5027831;28;700;-41
2022/09/02 14:50:27;;;;;;;;;;;;;;;25.62;nan;100299.72;5028793;28;1257;-46
2022/09/02 14:53:19;;;;;;;;;;;;;;;26.13;nan;100300.16;5027448;28;1027;-41
2022/09/02 14:56:05;;;;;;;;;;;;;;;26.46;nan;100301.47;5027887;28;929;-43
2022/09/02 14:58:50;;;;;;;;;;;;;;;26.62;nan;100307.03;5032156;28;1903;-42
2022/09/02 15:01:45;;;;;;;;;;;;;;;26.75;nan;100301.34;5024230;28;1296;-39
2022/09/02 15:04:34;;;;;;;;;;;;;;;26.83;nan;100302.28;5024826;28;1396;-46
2022/09/02 15:07:20;;;;;;;;;;;;;;;26.90;nan;100305.22;5022085;28;1258;-41
2022/09/02 15:10:08;;;;;;;;;;;;;;;26.95;nan;100310.94;5029856;28;1372;-39